Time;durP1;ratioP1;P1;durP2;ratioP2;P2;SDS_P1;SDS_P2;PMS_P1;PMS_P2;Temp;Humidity;BMP_temperature;BMP_pressure;BME280_temperature;BME280_humidity;BME280_pressure;Samples;Min_cycle;Max_cycle;Signal;HPM_P1;HPM_P2
2023/09/20 00:00:27;;;;;;;2.72;1.67;;;;;;;19.66;58.83;99841.78;4827418;29;20073;-95
2023/09/20 00:02:56;;;;;;;3.40;2.20;;;;;;;19.70;58.71;99821.97;4826030;29;20052;-95
2023/09/20 00:05:22;;;;;;;7.82;2.83;;;;;;;20.12;58.11;99860.03;4826318;29;20141;-94
2023/09/20 00:08:02;;;;;;;3.75;2.20;;;;;;;20.06;58.11;99850.47;4810228;29;20577;-94
2023/09/20 00:10:41;;;;;;;3.35;1.85;;;;;;;20.27;58.20;99891.34;4840275;29;20038;-94
2023/09/20 00:13:27;;;;;;;2.63;1.95;;;;;;;20.49;58.16;99923.25;4824905;29;20061;-95
2023/09/20 00:16:02;;;;;;;3.13;2.22;;;;;;;20.26;58.02;99857.47;4837790;29;20091;-96
2023/09/20 00:18:57;;;;;;;2.67;2.47;;;;;;;20.10;57.94;99821.75;4803239;29;20046;-94
2023/09/20 00:21:37;;;;;;;;;;;;;;;;;;;;;
2023/09/20 00:24:13;;;;;;;5.40;1.98;;;;;;;19.80;58.16;99799.19;4802739;29;20038;-94
2023/09/20 00:47:51;;;;;;;5.15;2.22;;;;;;;18.78;62.92;99753.34;4963585;28;20031;-92
2023/09/20 00:50:34;;;;;;;1.75;1.63;;;;;;;18.81;62.47;99744.28;4877375;29;20053;-93
2023/09/20 00:53:06;;;;;;;3.72;2.40;;;;;;;18.93;62.71;99789.16;4864542;29;20132;-94
2023/09/20 00:55:36;;;;;;;4.55;2.50;;;;;;;19.10;62.67;99791.00;4872534;29;20189;-94
2023/09/20 00:58:14;;;;;;;3.28;2.00;;;;;;;19.11;61.76;99773.19;4872588;29;20045;-93
2023/09/20 01:00:43;;;;;;;4.32;2.50;;;;;;;19.12;61.69;99767.75;4857033;29;20052;-95
2023/09/20 01:03:31;;;;;;;4.05;2.13;;;;;;;18.92;62.35;99757.16;4857227;29;20044;-93
2023/09/20 01:06:39;;;;;;;3.05;2.05;;;;;;;18.77;62.45;99751.59;4872306;29;20497;-93
2023/09/20 01:09:29;;;;;;;5.47;3.55;;;;;;;18.64;62.67;99739.75;4854565;29;20092;-93
2023/09/20 01:11:57;;;;;;;2.80;2.25;;;;;;;18.98;62.12;99734.63;4840978;29;20045;-95
2023/09/20 01:14:27;;;;;;;5.90;3.28;;;;;;;19.14;61.95;99747.16;4883582;29;20065;-94
2023/09/20 01:16:53;;;;;;;3.25;2.17;;;;;;;18.91;62.08;99740.28;4890584;29;20116;-92
2023/09/20 01:19:19;;;;;;;3.35;2.30;;;;;;;18.93;62.17;99746.41;4904155;28;20606;-95
2023/09/20 01:21:46;;;;;;;4.50;3.17;;;;;;;19.29;61.39;99766.94;4953933;28;20183;-93
2023/09/20 01:24:13;;;;;;;5.30;3.03;;;;;;;19.23;60.65;99726.25;4961760;28;20429;-95
2023/09/20 01:26:41;;;;;;;5.18;2.35;;;;;;;19.31;61.54;99750.81;4977913;28;20038;-96
2023/09/20 01:29:07;;;;;;;1.90;1.70;;;;;;;19.12;61.23;99738.34;5011731;28;20129;-96
2023/09/20 01:31:36;;;;;;;2.90;2.03;;;;;;;19.22;61.32;99741.44;5011666;28;20615;-91
2023/09/20 01:34:23;;;;;;;3.00;2.10;;;;;;;19.62;61.21;99792.91;5024398;28;20688;-90
2023/09/20 01:36:52;;;;;;;4.03;2.92;;;;;;;19.44;61.60;99762.59;5090721;22;20053;-95
2023/09/20 01:39:18;;;;;;;3.28;2.50;;;;;;;19.14;61.23;99719.56;5040400;28;20148;-96
2023/09/20 01:41:46;;;;;;;5.07;3.05;;;;;;;19.33;61.41;99776.50;5033785;28;21101;-96
2023/09/20 01:44:12;;;;;;;4.13;2.78;;;;;;;19.03;61.46;99752.19;5017608;28;20057;-95
2023/09/20 01:49:09;;;;;;;4.23;2.53;;;;;;;18.87;61.09;99746.69;5183786;22;20057;-91
2023/09/20 01:58:14;;;;;;;3.58;3.22;;;;;;;19.04;61.05;99769.06;5079166;28;20066;-96
2023/09/20 02:00:49;;;;;;;4.13;3.28;;;;;;;18.92;60.94;99754.50;4997964;28;20121;-96
2023/09/20 02:03:16;;;;;;;2.78;2.05;;;;;;;19.17;60.63;99780.91;4980349;28;20460;-95
2023/09/20 02:05:44;;;;;;;2.13;1.65;;;;;;;18.87;61.89;99784.09;4996091;28;20065;-96
2023/09/20 02:08:10;;;;;;;3.10;2.65;;;;;;;18.65;61.97;99736.16;4998498;28;20038;-96
2023/09/20 02:10:37;;;;;;;4.22;2.72;;;;;;;19.00;62.41;99823.63;5023930;28;20037;-96
2023/09/20 02:13:04;;;;;;;3.00;1.98;;;;;;;18.73;62.26;99766.03;5014905;28;20037;-96
2023/09/20 02:15:34;;;;;;;3.22;2.15;;;;;;;18.81;62.73;99803.06;5013649;28;20568;-95
2023/09/20 02:18:05;;;;;;;6.55;3.60;;;;;;;18.58;63.03;99774.78;4998566;28;20136;-96
2023/09/20 02:20:36;;;;;;;5.30;2.58;;;;;;;18.48;63.72;99794.84;5031559;28;20033;-96
2023/09/20 02:23:04;;;;;;;4.10;2.70;;;;;;;18.40;63.42;99787.19;5015603;28;20496;-96
2023/09/20 02:25:31;;;;;;;3.72;2.75;;;;;;;18.52;63.60;99804.44;5031369;28;20452;-96
2023/09/20 02:27:58;;;;;;;4.30;2.15;;;;;;;18.44;63.50;99780.75;5030888;28;20082;-93
2023/09/20 02:30:52;;;;;;;7.60;3.88;;;;;;;18.17;63.45;99756.19;5014786;28;20547;-93
2023/09/20 02:34:13;;;;;;;4.45;3.13;;;;;;;18.34;63.15;99793.66;5010664;28;20029;-95
2023/09/20 02:43:55;;;;;;;2.70;1.85;;;;;;;18.35;63.33;99778.50;4900690;29;20049;-95
2023/09/20 02:46:30;;;;;;;4.65;3.28;;;;;;;18.50;63.37;99798.31;4914778;29;20047;-92
2023/09/20 02:48:59;;;;;;;3.63;2.75;;;;;;;18.33;63.73;99793.75;4929531;29;20032;-92
2023/09/20 02:52:00;;;;;;;4.03;1.75;;;;;;;18.24;63.87;99773.66;4913256;29;20079;-95
2023/09/20 02:54:31;;;;;;;3.65;2.00;;;;;;;18.43;64.31;99809.28;4932339;29;20043;-93
2023/09/20 02:57:00;;;;;;;5.38;2.38;;;;;;;18.28;63.91;99772.59;4916402;29;20044;-94
2023/09/20 02:59:33;;;;;;;8.45;2.88;;;;;;;18.41;63.95;99776.44;4917596;29;20039;-95
2023/09/20 03:03:08;;;;;;;;;;;;;;;;;;;;;
2023/09/20 03:06:27;;;;;;;4.30;2.60;;;;;;;18.37;63.39;99780.19;4932585;29;20395;-93
2023/09/20 03:08:53;;;;;;;4.85;3.42;;;;;;;18.88;63.68;99862.50;4859580;29;20081;-88
2023/09/20 03:11:33;;;;;;;4.05;2.63;;;;;;;18.48;63.27;99774.34;4876044;29;20037;-91
2023/09/20 03:14:33;;;;;;;2.03;1.67;;;;;;;18.96;63.50;99844.28;4851437;29;20077;-91
2023/09/20 03:17:32;;;;;;;5.28;2.92;;;;;;;18.40;63.41;99790.72;4841833;29;20406;-93
2023/09/20 03:20:16;;;;;;;3.10;2.67;;;;;;;18.07;64.55;99774.41;4845615;29;20128;-90
2023/09/20 03:22:42;;;;;;;2.67;2.10;;;;;;;18.61;63.29;99814.69;4857461;29;20128;-91
2023/09/20 03:25:21;;;;;;;2.53;1.88;;;;;;;18.30;63.61;99769.84;4881504;29;20123;-90
2023/09/20 03:27:49;;;;;;;3.95;2.22;;;;;;;18.49;63.64;99813.47;4895205;29;20064;-86
2023/09/20 03:30:20;;;;;;;11.02;2.33;;;;;;;18.77;63.62;99863.81;4913073;29;20182;-86
2023/09/20 03:32:49;;;;;;;2.75;2.05;;;;;;;18.45;63.72;99811.00;4897346;29;20139;-85
2023/09/20 03:35:16;;;;;;;3.15;1.75;;;;;;;18.34;63.84;99807.03;4913202;29;20036;-88
2023/09/20 03:37:43;;;;;;;3.35;2.25;;;;;;;18.43;64.30;99827.09;4909559;29;20131;-88
2023/09/20 03:40:10;;;;;;;4.85;1.85;;;;;;;18.29;64.10;99790.34;4909852;29;20508;-88
2023/09/20 03:45:58;;;;;;;4.25;2.40;;;;;;;18.05;64.74;99787.81;4936200;29;20078;-88
2023/09/20 03:48:34;;;;;;;2.45;1.75;;;;;;;18.17;65.48;99823.78;4950457;29;20034;-93
2023/09/20 03:51:21;;;;;;;2.88;2.42;;;;;;;18.03;65.07;99792.38;4934514;29;20518;-91
2023/09/20 03:54:00;;;;;;;7.57;3.45;;;;;;;17.90;65.45;99775.16;4950363;29;20035;-90
2023/09/20 03:57:33;;;;;;;3.67;2.35;;;;;;;17.97;65.05;99789.13;4980242;28;20045;-92
2023/09/20 04:01:03;;;;;;;7.35;4.13;;;;;;;18.47;65.52;99870.56;4952019;28;20094;-92
2023/09/20 04:04:04;;;;;;;11.60;2.80;;;;;;;17.91;65.30;99757.38;4906752;29;20044;-92
2023/09/20 04:09:53;;;;;;;3.33;2.63;;;;;;;18.19;65.60;99835.25;4912339;29;20040;-93
2023/09/20 04:12:19;;;;;;;2.40;1.77;;;;;;;17.79;66.26;99801.41;4912026;29;20131;-90
2023/09/20 04:14:44;;;;;;;4.28;2.67;;;;;;;17.88;66.56;99839.25;4912505;29;20079;-90
2023/09/20 04:17:10;;;;;;;2.67;2.17;;;;;;;17.83;66.21;99822.56;4911757;29;20518;-88
2023/09/20 04:19:39;;;;;;;4.18;3.03;;;;;;;17.80;66.20;99805.84;4911031;29;20052;-90
2023/09/20 04:22:05;;;;;;;4.35;2.88;;;;;;;17.79;65.92;99799.59;4897320;29;20029;-90
2023/09/20 04:24:40;;;;;;;6.03;2.97;;;;;;;17.77;65.84;99789.97;4897444;29;20040;-86
2023/09/20 04:27:08;;;;;;;6.00;2.20;;;;;;;18.06;66.31;99864.31;4912084;29;21665;-88
2023/09/20 04:29:33;;;;;;;6.43;3.65;;;;;;;17.77;65.78;99801.47;4914646;29;20303;-87
2023/09/20 04:32:40;;;;;;;3.30;2.13;;;;;;;17.77;65.48;99811.28;5003691;28;20042;-90
2023/09/20 04:35:06;;;;;;;4.15;2.80;;;;;;;17.77;65.69;99830.84;4988254;28;20067;-88
2023/09/20 04:37:32;;;;;;;6.60;3.00;;;;;;;17.67;66.35;99837.47;4976042;28;20044;-87
2023/09/20 04:39:58;;;;;;;4.43;3.10;;;;;;;17.54;66.50;99829.13;5007855;28;20166;-85
2023/09/20 04:42:58;;;;;;;5.03;3.67;;;;;;;17.67;65.64;99818.81;5007113;28;20093;-90
2023/09/20 04:45:24;;;;;;;3.35;2.55;;;;;;;17.45;66.82;99806.38;5007927;28;20050;-86
2023/09/20 04:47:49;;;;;;;4.13;2.97;;;;;;;17.75;67.05;99862.06;5007480;28;20045;-88
2023/09/20 04:50:21;;;;;;;8.75;2.22;;;;;;;17.32;67.69;99786.50;4988700;28;20602;-88
2023/09/20 04:52:50;;;;;;;5.53;3.00;;;;;;;17.65;67.30;99840.22;4988371;28;20070;-88
2023/09/20 04:55:39;;;;;;;5.13;2.75;;;;;;;17.70;66.84;99802.66;4995660;28;20497;-90
2023/09/20 05:01:57;;;;;;;;;;;;;;;18.06;67.23;99890.13;4951007;29;20067;-89
2023/09/20 05:08:30;;;;;;;3.65;2.08;;;;;;;17.72;68.06;99847.03;4930246;29;20036;-88
2023/09/20 05:11:31;;;;;;;3.70;2.55;;;;;;;18.25;67.62;99890.19;4930967;29;20140;-89
2023/09/20 05:15:09;;;;;;;14.27;2.72;;;;;;;17.45;68.52;99793.03;4874015;29;20045;-92
2023/09/20 05:17:18;;;;;;;8.35;3.88;;;;;;;18.13;68.60;99888.06;4867631;29;20045;-85
2023/09/20 05:19:44;;;;;;;17.55;4.13;;;;;;;17.88;69.05;99867.72;4877902;29;20043;-86
2023/09/20 05:22:12;;;;;;;5.32;3.20;;;;;;;18.04;69.48;99887.53;4877189;29;20037;-85
2023/09/20 05:24:37;;;;;;;15.10;3.70;;;;;;;17.88;69.53;99835.72;4866625;29;20053;-87
2023/09/20 05:27:03;;;;;;;4.20;2.67;;;;;;;17.98;69.11;99838.88;4857994;29;20454;-86
2023/09/20 05:29:29;;;;;;;7.15;3.22;;;;;;;18.38;67.72;99845.13;4858718;29;20061;-87
2023/09/20 05:31:57;;;;;;;10.43;2.80;;;;;;;18.57;67.39;99853.19;4858486;29;20969;-86
2023/09/20 05:34:23;;;;;;;3.88;2.67;;;;;;;18.82;66.49;99838.69;4857942;29;20272;-87
2023/09/20 05:36:51;;;;;;;6.95;3.13;;;;;;;19.11;65.50;99878.31;4890910;29;20123;-87
2023/09/20 05:39:17;;;;;;;17.17;4.93;;;;;;;18.98;65.15;99836.19;4965085;28;20110;-87
2023/09/20 05:41:43;;;;;;;5.47;2.83;;;;;;;19.30;65.03;99877.44;4965504;28;20395;-86
2023/09/20 05:44:10;;;;;;;10.00;3.10;;;;;;;19.46;64.11;99858.81;4946278;28;20071;-86
2023/09/20 05:46:36;;;;;;;5.03;3.13;;;;;;;19.61;63.75;99857.22;4950342;28;20046;-87
2023/09/20 05:49:02;;;;;;;14.00;3.78;;;;;;;19.91;63.01;99888.75;4942172;28;20043;-86
2023/09/20 05:51:28;;;;;;;8.05;3.15;;;;;;;19.94;62.80;99880.56;4989226;28;20042;-87
2023/09/20 05:53:54;;;;;;;6.30;3.97;;;;;;;20.06;62.12;99861.19;5035442;28;20065;-87
2023/09/20 05:56:20;;;;;;;6.03;4.55;;;;;;;20.72;61.55;99922.06;5051639;28;20176;-86
2023/09/20 05:58:46;;;;;;;8.32;5.07;;;;;;;20.25;60.80;99874.50;5051699;28;20029;-87
2023/09/20 06:01:12;;;;;;;11.55;5.70;;;;;;;20.55;60.98;99901.47;5051863;28;20344;-87
2023/09/20 06:03:39;;;;;;;8.13;4.72;;;;;;;20.72;59.69;99878.31;5065457;28;20108;-91
2023/09/20 06:06:07;;;;;;;5.80;4.22;;;;;;;20.90;59.53;99869.25;5044471;28;20525;-88
2023/09/20 06:08:35;;;;;;;3.45;2.25;;;;;;;21.32;58.88;99871.44;5056491;28;20060;-88
2023/09/20 06:11:10;;;;;;;5.13;2.80;;;;;;;21.68;57.73;99895.31;5069517;28;20024;-90
2023/09/20 06:13:37;;;;;;;;;;;;;;;22.15;56.71;99939.13;5051360;28;20033;-87
2023/09/20 06:16:29;;;;;;;;;;;;;;;;;;;;;
2023/09/20 06:18:55;;;;;;;3.05;1.77;;;;;;;21.74;56.88;99876.19;5051378;28;20389;-87
2023/09/20 06:21:20;;;;;;;4.75;2.40;;;;;;;21.87;55.92;99883.50;5066266;28;20120;-87
2023/09/20 06:23:48;;;;;;;11.45;3.72;;;;;;;22.25;55.24;99883.91;5069319;28;20044;-89
2023/09/20 06:29:29;;;;;;;;;;;;;;;;;;;;;
2023/09/20 06:32:04;;;;;;;4.82;3.05;;;;;;;22.56;53.85;99895.50;4986675;28;20069;-90
2023/09/20 06:34:36;;;;;;;4.13;3.13;;;;;;;22.90;53.69;99909.53;4976141;28;20056;-88
2023/09/20 06:37:01;;;;;;;11.88;3.70;;;;;;;22.91;53.39;99887.06;4970317;28;20038;-89
2023/09/20 06:39:27;;;;;;;4.78;3.92;;;;;;;22.97;51.77;99883.09;4975489;28;20046;-87
2023/09/20 06:41:53;;;;;;;5.47;3.92;;;;;;;23.04;52.00;99871.84;4970526;28;20106;-87
2023/09/20 06:44:19;;;;;;;4.32;3.03;;;;;;;23.29;52.80;99902.59;4983086;28;20050;-87
2023/09/20 06:46:45;;;;;;;6.38;2.90;;;;;;;23.77;51.29;99899.47;4972442;28;20470;-87
2023/09/20 06:49:11;;;;;;;5.90;3.47;;;;;;;24.18;50.96;99957.84;4987721;28;20454;-88
2023/09/20 06:51:37;;;;;;;6.35;4.03;;;;;;;24.38;50.31;99907.97;4989097;28;20026;-88
2023/09/20 06:54:03;;;;;;;8.32;4.03;;;;;;;24.66;49.82;99919.53;4986399;28;20049;-86
2023/09/20 06:56:29;;;;;;;7.70;3.45;;;;;;;24.35;49.45;99877.66;4989607;28;20046;-86
2023/09/20 06:58:55;;;;;;;7.53;4.47;;;;;;;24.69;47.82;99881.56;5015113;28;20090;-86
2023/09/20 07:01:25;;;;;;;15.25;4.82;;;;;;;25.08;47.36;99889.63;5070377;28;20032;-88
2023/09/20 07:03:52;;;;;;;7.18;3.92;;;;;;;25.06;47.19;99889.72;5060861;28;20040;-86
2023/09/20 07:06:18;;;;;;;5.25;3.28;;;;;;;24.54;48.38;99871.84;5068928;28;20071;-87
2023/09/20 07:08:43;;;;;;;8.73;3.65;;;;;;;25.31;46.16;99915.81;5032031;28;20068;-88
2023/09/20 07:11:11;;;;;;;3.92;2.42;;;;;;;25.25;46.69;99953.16;5050850;28;20036;-86
2023/09/20 07:13:36;;;;;;;5.05;2.60;;;;;;;25.19;47.03;99908.56;5059262;28;20052;-85
2023/09/20 07:16:05;;;;;;;3.47;2.50;;;;;;;25.21;46.53;99876.97;5063931;28;20071;-85
2023/09/20 07:18:32;;;;;;;4.35;2.10;;;;;;;25.62;45.63;99893.78;5050294;28;20029;-85
2023/09/20 07:20:58;;;;;;;5.03;3.58;;;;;;;25.72;45.42;99887.59;5048800;28;20024;-83
2023/09/20 07:23:23;;;;;;;3.92;2.20;;;;;;;26.18;44.65;99907.59;5056307;28;20027;-83
2023/09/20 07:25:50;;;;;;;5.40;2.65;;;;;;;26.02;44.45;99902.47;5050341;28;20033;-83
2023/09/20 07:28:19;;;;;;;5.63;3.60;;;;;;;25.86;44.64;99885.69;5049815;28;20411;-86
2023/09/20 07:30:45;;;;;;;19.02;3.70;;;;;;;26.21;44.75;99910.06;5050232;28;20037;-85
2023/09/20 07:33:12;;;;;;;3.83;2.05;;;;;;;25.64;45.51;99872.94;5050159;28;20083;-86
2023/09/20 07:35:47;;;;;;;6.25;2.88;;;;;;;25.91;45.87;99897.84;5049829;28;20209;-86
2023/09/20 07:38:27;;;;;;;3.08;2.58;;;;;;;26.39;45.24;99899.63;5049741;28;20127;-86
2023/09/20 07:40:53;;;;;;;7.97;3.47;;;;;;;26.75;44.89;99913.13;5049350;28;20040;-86
2023/09/20 07:43:20;;;;;;;4.43;3.35;;;;;;;26.97;42.92;99896.03;5049548;28;20126;-86
2023/09/20 07:45:46;;;;;;;2.38;1.63;;;;;;;27.01;43.10;99877.72;5049706;28;20040;-87
2023/09/20 07:48:13;;;;;;;4.72;2.25;;;;;;;27.17;43.70;99902.53;5050351;28;20028;-87
2023/09/20 07:50:40;;;;;;;4.45;2.75;;;;;;;27.20;44.47;99913.13;5048827;28;20476;-86
2023/09/20 07:53:15;;;;;;;4.00;2.47;;;;;;;27.24;42.26;99898.34;5050096;28;20108;-86
2023/09/20 07:55:44;;;;;;;10.20;3.33;;;;;;;27.07;42.44;99874.50;5049312;28;20084;-87
2023/09/20 07:58:13;;;;;;;10.20;2.55;;;;;;;27.18;42.78;99866.38;5049280;28;20037;-87
2023/09/20 08:00:46;;;;;;;2.60;1.88;;;;;;;27.09;42.59;99895.03;5032199;28;20407;-88
2023/09/20 08:03:12;;;;;;;2.67;1.70;;;;;;;27.12;42.24;99896.63;5050425;28;20033;-86
2023/09/20 08:05:38;;;;;;;2.42;1.80;;;;;;;27.66;42.80;99898.53;5059301;28;20179;-87
2023/09/20 08:08:06;;;;;;;3.90;2.10;;;;;;;27.89;40.84;99894.91;5052350;28;20036;-87
2023/09/20 08:10:34;;;;;;;13.10;2.60;;;;;;;27.97;40.85;99893.25;5042972;28;20384;-86
2023/09/20 08:13:01;;;;;;;4.68;2.85;;;;;;;28.11;41.20;99891.25;5064036;28;20489;-86
2023/09/20 08:15:28;;;;;;;4.78;2.92;;;;;;;27.98;41.38;99922.09;5061706;28;20120;-86
2023/09/20 08:20:39;;;;;;;3.60;2.28;;;;;;;28.14;40.66;99862.00;5049025;28;20471;-87
2023/09/20 08:59:54;;;;;;;3.35;2.60;;;;;;;28.38;40.42;99845.47;4991473;28;20041;-90
2023/09/20 09:02:24;;;;;;;11.90;3.60;;;;;;;28.09;39.83;99834.44;5017861;28;20041;-88
2023/09/20 09:04:53;;;;;;;8.70;4.30;;;;;;;28.03;39.70;99819.53;5041495;28;20029;-88
2023/09/20 09:07:24;;;;;;;3.35;2.10;;;;;;;28.28;38.56;99849.13;5070032;28;20020;-89
2023/09/20 09:09:50;;;;;;;3.92;2.33;;;;;;;28.27;38.83;99834.72;5061674;28;20060;-90
2023/09/20 09:12:16;;;;;;;3.47;2.38;;;;;;;28.40;38.98;99810.91;5052942;28;20483;-89
2023/09/20 09:14:42;;;;;;;4.28;2.13;;;;;;;28.64;38.97;99817.06;5052483;28;20086;-89
2023/09/20 09:17:09;;;;;;;3.42;2.40;;;;;;;28.72;38.76;99823.53;5053447;28;20071;-89
2023/09/20 09:19:36;;;;;;;2.00;1.50;;;;;;;28.63;37.69;99797.22;5052740;28;20123;-89
2023/09/20 09:22:02;;;;;;;3.72;2.22;;;;;;;29.08;37.35;99842.06;5034807;28;20899;-92
2023/09/20 09:24:29;;;;;;;4.55;3.20;;;;;;;28.85;38.30;99822.44;5041390;28;20036;-88
2023/09/20 09:27:04;;;;;;;7.38;3.97;;;;;;;28.80;37.71;99819.28;5053515;28;20036;-85
2023/09/20 09:29:30;;;;;;;4.10;2.25;;;;;;;28.44;37.14;99794.38;5052265;28;20068;-89
2023/09/20 09:31:56;;;;;;;7.88;4.07;;;;;;;28.32;37.28;99771.94;5053128;28;20056;-86
2023/09/20 09:34:22;;;;;;;6.07;2.83;;;;;;;28.32;37.09;99788.19;5053312;28;20033;-87
2023/09/20 09:36:48;;;;;;;4.43;2.55;;;;;;;28.67;37.63;99812.25;5051957;28;20040;-90
2023/09/20 09:39:14;;;;;;;5.03;2.88;;;;;;;28.37;36.72;99772.38;5053024;28;20056;-90
2023/09/20 09:41:44;;;;;;;4.35;3.75;;;;;;;28.72;36.50;99828.97;5052243;28;20043;-89
2023/09/20 09:44:10;;;;;;;6.07;2.80;;;;;;;28.33;37.29;99787.19;5052390;28;20032;-90
2023/09/20 09:46:41;;;;;;;3.95;2.45;;;;;;;28.51;36.94;99800.97;5052380;28;20032;-89
2023/09/20 09:49:11;;;;;;;7.07;2.25;;;;;;;28.59;36.27;99782.19;5072069;28;20399;-86
2023/09/20 09:51:52;;;;;;;3.75;2.05;;;;;;;28.86;35.68;99795.16;5038923;28;20541;-85
2023/09/20 09:54:24;;;;;;;7.53;2.53;;;;;;;28.70;36.03;99767.66;5051987;28;20431;-84
2023/09/20 09:56:50;;;;;;;5.22;2.35;;;;;;;28.97;35.66;99799.59;5051836;28;20037;-87
2023/09/20 09:59:16;;;;;;;3.95;2.03;;;;;;;28.89;35.63;99762.31;5051992;28;20415;-86
2023/09/20 10:01:42;;;;;;;5.28;3.20;;;;;;;29.25;35.17;99797.13;5053973;28;20119;-85
2023/09/20 10:04:13;;;;;;;6.25;1.92;;;;;;;29.04;34.41;99756.47;5058808;28;20147;-84
2023/09/20 10:06:58;;;;;;;2.83;1.65;;;;;;;29.33;35.79;99826.28;5051912;28;20491;-85
2023/09/20 10:09:35;;;;;;;3.65;2.17;;;;;;;29.24;34.55;99773.66;5052361;28;20199;-87
2023/09/20 10:12:01;;;;;;;6.80;1.55;;;;;;;29.41;34.28;99778.41;5051541;28;20111;-86
2023/09/20 10:14:27;;;;;;;8.60;1.58;;;;;;;29.36;33.93;99748.09;5033179;28;20033;-86
2023/09/20 10:16:54;;;;;;;3.67;2.17;;;;;;;29.45;34.59;99747.22;5034052;28;20036;-86
2023/09/20 10:19:19;;;;;;;2.30;1.77;;;;;;;29.53;33.33;99767.41;5033170;28;20569;-86
2023/09/20 10:22:08;;;;;;;3.90;1.98;;;;;;;29.17;33.69;99740.75;5051733;28;20029;-87
2023/09/20 10:24:58;;;;;;;2.78;1.80;;;;;;;29.35;33.62;99750.94;5047157;28;20094;-90
2023/09/20 10:27:27;;;;;;;2.15;1.45;;;;;;;29.53;35.03;99761.97;5034111;28;20025;-89
2023/09/20 10:30:10;;;;;;;3.50;2.03;;;;;;;29.84;33.73;99776.25;5047020;28;20032;-90
2023/09/20 10:32:54;;;;;;;2.83;1.77;;;;;;;29.67;33.47;99723.47;5046384;28;20076;-89
2023/09/20 10:35:22;;;;;;;7.28;3.13;;;;;;;29.50;35.21;99716.91;5043199;28;20058;-89
2023/09/20 10:38:12;;;;;;;5.88;3.67;;;;;;;29.85;34.73;99785.28;5053489;28;20031;-85
2023/09/20 10:40:59;;;;;;;4.97;2.30;;;;;;;29.54;34.91;99785.44;5053349;28;20131;-85
2023/09/20 10:43:37;;;;;;;3.38;2.28;;;;;;;29.74;35.24;99773.53;5052650;28;20032;-89
2023/09/20 10:46:16;;;;;;;4.38;1.95;;;;;;;29.17;34.16;99699.19;5064528;28;20040;-87
2023/09/20 10:49:03;;;;;;;4.88;2.25;;;;;;;29.70;34.84;99760.38;5050556;28;20033;-86
2023/09/20 10:51:53;;;;;;;4.97;1.92;;;;;;;29.52;34.83;99733.06;5040479;28;20036;-91
2023/09/20 10:54:20;;;;;;;2.65;1.40;;;;;;;29.26;34.45;99684.78;5034349;28;20060;-88
2023/09/20 10:56:50;;;;;;;6.90;1.75;;;;;;;29.80;33.98;99753.09;5044681;28;20155;-87
2023/09/20 10:59:16;;;;;;;6.70;1.98;;;;;;;29.82;33.87;99715.75;5044311;28;20049;-89
2023/09/20 11:01:50;;;;;;;2.95;2.00;;;;;;;30.17;33.32;99764.03;5031959;28;20033;-87
2023/09/20 11:04:19;;;;;;;4.38;2.17;;;;;;;29.73;33.89;99703.84;5049701;28;20037;-86
2023/09/20 11:06:49;;;;;;;2.00;1.23;;;;;;;29.74;32.63;99748.22;5049139;28;20029;-87
2023/09/20 11:09:15;;;;;;;4.28;1.95;;;;;;;29.63;32.10;99703.03;5050705;28;20036;-87
2023/09/20 11:11:42;;;;;;;3.38;1.40;;;;;;;29.72;32.44;99682.25;5050688;28;20060;-87
2023/09/20 11:14:16;;;;;;;1.95;1.10;;;;;;;29.89;32.01;99691.53;5031854;28;20105;-90
2023/09/20 11:16:42;;;;;;;6.73;1.97;;;;;;;29.98;32.60;99687.94;5049338;28;20766;-88
2023/09/20 11:19:15;;;;;;;5.82;1.70;;;;;;;30.44;32.47;99723.44;5050457;28;20510;-87
2023/09/20 11:21:53;;;;;;;8.95;1.95;;;;;;;30.31;32.15;99682.97;5050848;28;20036;-89
2023/09/20 11:24:53;;;;;;;2.20;1.65;;;;;;;30.41;32.21;99689.22;5052988;28;20514;-91
2023/09/20 11:27:38;;;;;;;5.82;1.95;;;;;;;30.36;32.72;99705.13;5076960;28;20107;-91
2023/09/20 11:30:18;;;;;;;2.67;1.50;;;;;;;30.71;32.91;99733.47;5056674;28;20041;-91
2023/09/20 11:33:21;;;;;;;;;;;;;;;;;;;;;
2023/09/20 11:35:47;;;;;;;2.05;1.35;;;;;;;30.53;32.23;99668.97;5081795;28;20107;-96
2023/09/20 11:42:04;;;;;;;2.55;1.48;;;;;;;30.66;31.66;99716.72;4865393;29;20037;-95
2023/09/20 11:44:43;;;;;;;2.90;1.50;;;;;;;30.58;30.93;99667.66;4854313;29;20033;-93
2023/09/20 11:47:15;;;;;;;3.50;1.63;;;;;;;30.97;30.55;99720.03;4849440;29;20048;-95
2023/09/20 11:49:46;;;;;;;2.67;1.30;;;;;;;30.75;31.00;99669.53;4862096;29;20052;-96
2023/09/20 11:52:20;;;;;;;1.88;1.23;;;;;;;30.97;31.43;99700.97;4841139;29;20049;-96
2023/09/20 11:54:49;;;;;;;3.75;1.92;;;;;;;31.01;32.36;99698.78;4841160;29;20037;-94
2023/09/20 11:57:16;;;;;;;6.43;1.45;;;;;;;30.75;31.53;99679.56;4841095;29;20050;-93
2023/09/20 11:59:47;;;;;;;3.55;1.42;;;;;;;30.66;31.90;99687.66;4841675;29;20136;-94
2023/09/20 12:02:12;;;;;;;3.83;2.15;;;;;;;30.41;32.18;99632.09;4857989;29;20124;-93
2023/09/20 12:04:41;;;;;;;2.85;1.80;;;;;;;30.48;31.97;99622.31;4866687;29;20068;-95
2023/09/20 12:07:08;;;;;;;3.38;1.60;;;;;;;30.63;32.13;99625.38;4844332;29;20038;-92
2023/09/20 12:09:41;;;;;;;3.58;1.60;;;;;;;30.83;31.61;99638.81;4843819;29;20448;-94
2023/09/20 12:12:11;;;;;;;3.33;1.98;;;;;;;31.04;30.83;99699.31;4867547;29;20044;-95
2023/09/20 12:14:42;;;;;;;3.53;1.65;;;;;;;30.70;30.41;99631.88;4859170;29;20130;-95
2023/09/20 12:17:52;;;;;;;1.95;1.13;;;;;;;30.98;30.80;99686.31;4858801;29;20268;-89
2023/09/20 12:20:18;;;;;;;7.90;1.63;;;;;;;30.71;30.32;99616.44;4930409;29;20051;-90
2023/09/20 12:23:00;;;;;;;1.85;1.20;;;;;;;30.55;30.69;99589.03;4913960;29;20040;-91
2023/09/20 12:25:41;;;;;;;3.55;1.85;;;;;;;30.76;31.00;99626.84;4914453;29;20066;-90
2023/09/20 12:28:08;;;;;;;2.00;1.23;;;;;;;30.55;30.56;99625.25;4914391;29;20050;-90
2023/09/20 12:30:58;;;;;;;1.83;1.05;;;;;;;30.60;29.68;99647.44;4930018;29;20102;-91
2023/09/20 12:33:24;;;;;;;2.03;1.05;;;;;;;30.84;29.29;99641.38;4935179;29;20146;-89
2023/09/20 12:36:51;;;;;;;1.95;1.75;;;;;;;30.92;29.45;99667.84;4915676;29;20059;-92
2023/09/20 12:40:08;;;;;;;1.38;1.25;;;;;;;30.78;29.90;99619.38;5015961;28;20154;-90
2023/09/20 12:43:01;;;;;;;3.22;1.10;;;;;;;30.91;29.97;99589.91;4969652;28;20045;-93
2023/09/20 12:46:11;;;;;;;;;;;;;;;;;;;;;
2023/09/20 12:49:08;;;;;;;3.80;2.13;;;;;;;31.04;29.05;99619.47;4948834;28;20028;-93
2023/09/20 12:51:36;;;;;;;2.95;0.77;;;;;;;30.80;29.17;99579.22;4946169;28;20576;-94
2023/09/20 12:54:18;;;;;;;3.13;1.25;;;;;;;30.93;28.27;99571.53;4987936;28;20536;-91
2023/09/20 12:56:55;;;;;;;2.05;0.90;;;;;;;31.18;29.31;99616.19;4970443;28;20038;-89
2023/09/20 13:00:02;;;;;;;2.33;1.20;;;;;;;31.18;28.39;99602.56;4987891;28;20136;-86
2023/09/20 13:02:31;;;;;;;1.08;0.63;;;;;;;31.31;28.19;99588.53;4932394;29;20046;-88
2023/09/20 13:05:27;;;;;;;1.58;1.10;;;;;;;31.23;29.12;99581.16;4933536;29;20043;-91
2023/09/20 13:07:56;;;;;;;1.70;1.02;;;;;;;31.40;28.70;99570.34;4921401;29;20526;-88
2023/09/20 13:10:29;;;;;;;2.90;1.30;;;;;;;31.55;28.47;99592.47;4929683;29;20550;-86
2023/09/20 13:12:55;;;;;;;2.72;1.48;;;;;;;31.24;28.42;99588.31;4929644;29;20036;-86
2023/09/20 13:15:26;;;;;;;5.05;1.60;;;;;;;31.26;28.87;99607.22;4913723;29;20039;-87
2023/09/20 13:17:55;;;;;;;1.17;0.95;;;;;;;31.16;28.31;99599.16;4925960;29;20066;-84
2023/09/20 13:20:23;;;;;;;2.33;1.10;;;;;;;30.95;28.77;99536.81;4968040;28;20042;-85
2023/09/20 13:22:52;;;;;;;4.07;2.22;;;;;;;31.29;28.01;99584.25;4984605;28;20027;-84
2023/09/20 13:25:26;;;;;;;1.33;0.98;;;;;;;31.22;28.57;99570.44;4968058;28;20099;-86
2023/09/20 13:28:03;;;;;;;2.20;1.55;;;;;;;31.65;28.56;99627.78;4968774;28;20046;-86
2023/09/20 13:30:32;;;;;;;1.33;0.88;;;;;;;31.31;28.97;99585.81;4967584;28;20552;-87
2023/09/20 13:37:13;;;;;;;;;;;;;;;;;;;;;
2023/09/20 13:40:00;;;;;;;1.55;1.45;;;;;;;31.24;27.97;99568.41;4894728;29;20452;-89
2023/09/20 13:42:25;;;;;;;3.00;1.15;;;;;;;31.06;28.59;99577.47;4894935;29;20044;-85
2023/09/20 13:44:51;;;;;;;8.00;1.52;;;;;;;31.10;28.43;99567.09;4895469;29;20044;-86
2023/09/20 13:47:28;;;;;;;1.90;1.15;;;;;;;31.03;28.58;99544.22;4894844;29;20630;-85
2023/09/20 13:49:57;;;;;;;0.80;0.63;;;;;;;31.31;28.43;99593.13;4894197;29;20198;-86
2023/09/20 13:55:46;;;;;;;1.75;0.90;;;;;;;31.18;27.79;99539.91;4893908;29;20048;-86
2023/09/20 13:58:23;;;;;;;1.35;0.98;;;;;;;31.40;27.72;99575.81;4895032;29;20039;-87